Time;durP1;ratioP1;P1;durP2;ratioP2;P2;SDS_P1;SDS_P2;PMS_P1;PMS_P2;Temp;Humidity;BMP_temperature;BMP_pressure;BME280_temperature;BME280_humidity;BME280_pressure;Samples;Min_cycle;Max_cycle;Signal;HPM_P1;HPM_P2
2023/10/15 00:00:18;;;;;;;10.70;10.50;;;6.50;99.90;;;;;;5073831;28;21205;-68
2023/10/15 00:02:46;;;;;;;10.60;10.40;;;6.50;99.90;;;;;;5067164;28;20538;-68
2023/10/15 00:05:17;;;;;;;12.03;11.73;;;6.40;99.90;;;;;;5066879;28;20685;-67
2023/10/15 00:07:47;;;;;;;11.70;11.40;;;6.30;99.90;;;;;;5068279;28;20504;-67
2023/10/15 00:10:15;;;;;;;12.93;12.53;;;6.40;99.90;;;;;;5073089;28;20469;-67
2023/10/15 00:12:43;;;;;;;11.47;11.17;;;6.30;99.90;;;;;;5079054;28;20482;-68
2023/10/15 00:15:14;;;;;;;13.30;12.90;;;6.40;99.90;;;;;;5076562;28;20494;-67
2023/10/15 00:17:43;;;;;;;12.23;11.93;;;6.40;99.90;;;;;;5080195;28;20463;-66
2023/10/15 00:20:16;;;;;;;13.63;13.23;;;6.40;99.90;;;;;;5072651;28;20993;-66
2023/10/15 00:22:44;;;;;;;11.50;11.20;;;6.30;99.90;;;;;;5075311;28;20459;-67
2023/10/15 00:25:14;;;;;;;11.50;11.20;;;6.30;99.90;;;;;;5081632;28;20496;-67
2023/10/15 00:27:44;;;;;;;10.67;10.47;;;6.30;99.90;;;;;;5071088;28;20572;-67
2023/10/15 00:30:13;;;;;;;12.80;12.50;;;6.30;99.90;;;;;;5068204;28;21049;-67
2023/10/15 00:32:43;;;;;;;11.27;10.97;;;6.30;99.90;;;;;;5069382;28;20469;-68
2023/10/15 00:35:11;;;;;;;11.80;11.50;;;6.30;99.90;;;;;;5070081;28;20546;-66
2023/10/15 00:37:40;;;;;;;11.73;11.43;;;6.30;99.90;;;;;;5072922;28;20474;-67
2023/10/15 00:40:16;;;;;;;12.47;12.17;;;6.30;99.90;;;;;;5077008;28;20458;-67
2023/10/15 00:42:44;;;;;;;12.17;11.87;;;6.20;99.90;;;;;;5066055;28;20458;-66
2023/10/15 00:45:11;;;;;;;12.20;11.90;;;6.20;99.90;;;;;;5075777;28;20461;-68
2023/10/15 00:47:39;;;;;;;11.40;11.10;;;6.20;99.90;;;;;;5084187;28;20991;-67
2023/10/15 00:50:10;;;;;;;11.43;11.13;;;6.20;99.90;;;;;;5073289;28;20964;-67
2023/10/15 00:52:42;;;;;;;12.40;12.10;;;6.20;99.90;;;;;;5078024;28;20532;-67
2023/10/15 00:55:11;;;;;;;11.93;11.63;;;6.20;99.90;;;;;;5072028;28;20464;-68
2023/10/15 00:57:42;;;;;;;12.30;12.00;;;6.10;99.90;;;;;;5083314;28;20464;-68
2023/10/15 01:00:37;;;;;;;12.40;12.10;;;6.10;99.90;;;;;;5076175;28;20460;-67
2023/10/15 01:03:04;;;;;;;12.57;12.27;;;6.00;99.90;;;;;;5071716;28;20557;-67
2023/10/15 01:05:45;;;;;;;13.50;13.10;;;6.00;99.90;;;;;;5080264;28;20451;-68
2023/10/15 01:08:16;;;;;;;13.03;12.63;;;6.00;99.90;;;;;;5067450;28;20494;-68
2023/10/15 01:10:44;;;;;;;12.73;12.43;;;6.00;99.90;;;;;;5070109;28;20458;-67
2023/10/15 01:13:16;;;;;;;12.63;12.33;;;6.00;99.90;;;;;;5084037;28;20968;-67
2023/10/15 01:15:45;;;;;;;13.50;13.10;;;6.00;99.90;;;;;;5074574;28;20461;-67
2023/10/15 01:18:13;;;;;;;12.77;12.43;;;6.00;99.90;;;;;;5076521;28;20462;-67
2023/10/15 01:20:43;;;;;;;13.90;13.50;;;6.00;99.90;;;;;;5072502;28;20465;-67
2023/10/15 01:23:25;;;;;;;13.33;12.93;;;6.00;99.90;;;;;;5074925;28;20585;-68
2023/10/15 01:25:54;;;;;;;12.70;12.40;;;6.00;99.90;;;;;;5067270;28;20463;-67
2023/10/15 01:28:24;;;;;;;12.80;12.50;;;6.10;99.90;;;;;;5076617;28;20497;-66
2023/10/15 01:30:51;;;;;;;10.93;10.73;;;6.10;99.90;;;;;;5070921;28;20578;-67
2023/10/15 01:33:19;;;;;;;11.80;11.50;;;6.10;99.90;;;;;;5075153;28;20519;-66
2023/10/15 01:35:46;;;;;;;12.27;11.97;;;6.20;99.90;;;;;;5078599;28;20479;-67
2023/10/15 01:38:20;;;;;;;12.10;11.80;;;6.20;99.90;;;;;;5081466;28;20516;-67
2023/10/15 01:40:52;;;;;;;12.57;12.27;;;6.20;99.90;;;;;;5077199;28;20466;-66
2023/10/15 01:43:22;;;;;;;12.03;11.73;;;6.20;99.90;;;;;;5071677;28;20798;-67
2023/10/15 01:45:57;;;;;;;11.37;11.07;;;6.20;99.90;;;;;;5081625;28;20493;-68
2023/10/15 01:48:30;;;;;;;11.90;11.60;;;6.30;99.90;;;;;;5077878;28;20525;-68
2023/10/15 01:51:06;;;;;;;11.57;11.27;;;6.30;99.90;;;;;;5078904;28;20465;-67
2023/10/15 01:53:36;;;;;;;10.93;10.73;;;6.40;99.90;;;;;;5070524;28;20468;-67
2023/10/15 01:56:03;;;;;;;10.20;10.00;;;6.40;99.90;;;;;;5081493;28;20454;-67
2023/10/15 01:58:32;;;;;;;10.77;10.57;;;6.40;99.90;;;;;;5073608;28;20588;-67
2023/10/15 02:01:05;;;;;;;11.20;10.90;;;6.50;99.90;;;;;;5077190;28;21256;-67
2023/10/15 02:03:32;;;;;;;9.93;9.73;;;6.50;99.90;;;;;;5073224;28;20536;-67
2023/10/15 02:06:06;;;;;;;10.20;10.00;;;6.50;99.90;;;;;;5074338;28;20490;-67
2023/10/15 02:08:38;;;;;;;11.10;10.87;;;6.60;99.90;;;;;;5070553;28;21036;-67
2023/10/15 02:11:21;;;;;;;10.50;10.30;;;6.70;99.90;;;;;;5076521;28;20600;-67
2023/10/15 02:13:49;;;;;;;10.93;10.73;;;6.60;99.90;;;;;;5083139;28;20508;-67
2023/10/15 02:16:29;;;;;;;9.97;9.77;;;6.70;99.90;;;;;;5073494;28;20454;-67
2023/10/15 02:18:58;;;;;;;10.40;10.20;;;6.70;99.90;;;;;;5074274;28;20467;-66
2023/10/15 02:21:25;;;;;;;9.90;9.70;;;6.70;99.90;;;;;;5079833;28;21074;-68
2023/10/15 02:23:52;;;;;;;9.83;9.63;;;6.70;99.90;;;;;;5084440;28;20454;-66
2023/10/15 02:26:23;;;;;;;9.40;9.20;;;6.80;99.90;;;;;;5079429;28;20466;-66
2023/10/15 02:28:54;;;;;;;10.00;9.80;;;6.80;99.90;;;;;;5083558;28;20547;-67
2023/10/15 02:31:23;;;;;;;9.27;9.07;;;6.90;99.90;;;;;;5077807;28;20466;-68
2023/10/15 02:33:51;;;;;;;10.47;10.27;;;6.90;99.90;;;;;;5078766;28;20471;-67
2023/10/15 02:36:23;;;;;;;10.87;10.67;;;7.00;99.90;;;;;;5087474;28;20520;-67
2023/10/15 02:38:55;;;;;;;10.80;10.60;;;7.00;99.90;;;;;;5070346;28;20541;-67
2023/10/15 02:41:26;;;;;;;10.93;10.73;;;7.00;99.90;;;;;;5077266;28;20456;-68
2023/10/15 02:43:55;;;;;;;10.73;10.53;;;7.10;99.90;;;;;;5085208;28;20474;-67
2023/10/15 02:46:24;;;;;;;10.60;10.40;;;7.10;99.90;;;;;;5077658;28;20502;-67
2023/10/15 02:48:54;;;;;;;10.73;10.53;;;7.10;99.90;;;;;;5087814;28;20490;-67
2023/10/15 02:51:24;;;;;;;10.23;10.03;;;7.10;99.90;;;;;;5074234;28;20473;-68
2023/10/15 02:53:54;;;;;;;10.80;10.60;;;7.20;99.90;;;;;;5078530;28;20804;-68
2023/10/15 02:56:23;;;;;;;10.80;10.60;;;7.30;99.90;;;;;;5083238;28;20536;-67
2023/10/15 02:58:54;;;;;;;10.60;10.40;;;7.30;99.90;;;;;;5072827;28;20462;-67
2023/10/15 03:01:24;;;;;;;11.53;11.23;;;7.30;99.90;;;;;;5080541;28;20973;-67
2023/10/15 03:03:52;;;;;;;11.30;11.00;;;7.30;99.90;;;;;;5070060;28;20541;-67
2023/10/15 03:06:24;;;;;;;10.90;10.70;;;7.30;99.90;;;;;;5078007;28;20534;-67
2023/10/15 03:08:52;;;;;;;11.67;11.37;;;7.40;99.90;;;;;;5076659;28;20487;-67
2023/10/15 03:11:21;;;;;;;12.40;12.10;;;7.40;99.90;;;;;;5082145;28;20952;-67
2023/10/15 03:13:54;;;;;;;11.97;11.67;;;7.50;99.90;;;;;;5074742;28;20873;-67
2023/10/15 03:16:24;;;;;;;12.60;12.30;;;7.50;99.90;;;;;;5075047;28;20455;-67
2023/10/15 03:18:52;;;;;;;12.93;12.53;;;7.40;99.90;;;;;;5069454;28;20470;-67
2023/10/15 03:21:25;;;;;;;11.53;11.23;;;7.50;99.90;;;;;;5083713;28;20548;-67
2023/10/15 03:23:55;;;;;;;12.90;12.53;;;7.40;99.90;;;;;;5079124;28;20867;-68
2023/10/15 03:26:23;;;;;;;12.57;12.27;;;7.40;99.90;;;;;;5071501;28;20491;-68
2023/10/15 03:28:58;;;;;;;12.23;11.93;;;7.40;99.90;;;;;;5071186;28;20492;-67
2023/10/15 03:31:30;;;;;;;12.47;12.17;;;7.40;99.90;;;;;;5072708;28;20563;-67
2023/10/15 03:34:12;;;;;;;12.40;12.10;;;7.40;99.90;;;;;;5079877;28;20494;-67
2023/10/15 03:36:50;;;;;;;12.47;12.17;;;7.40;99.90;;;;;;5078684;28;20475;-68
2023/10/15 03:39:24;;;;;;;12.97;12.57;;;7.50;99.90;;;;;;5077330;28;20499;-68
2023/10/15 03:41:54;;;;;;;13.07;12.67;;;7.40;99.90;;;;;;5074408;28;20451;-67
2023/10/15 03:44:27;;;;;;;12.53;12.23;;;7.40;99.90;;;;;;5081050;28;20515;-67
2023/10/15 03:47:04;;;;;;;12.60;12.30;;;7.40;99.90;;;;;;5073166;28;20841;-68
2023/10/15 03:49:31;;;;;;;12.20;11.90;;;7.40;99.90;;;;;;5070967;28;20492;-68
2023/10/15 03:51:58;;;;;;;12.50;12.20;;;7.40;99.90;;;;;;5074579;28;20459;-68
2023/10/15 03:54:25;;;;;;;12.47;12.17;;;7.30;99.90;;;;;;5077807;28;20956;-68
2023/10/15 03:56:53;;;;;;;14.20;13.80;;;7.30;99.90;;;;;;5072276;28;20466;-68
2023/10/15 03:59:20;;;;;;;13.80;13.40;;;7.40;99.90;;;;;;5081820;28;20464;-67
2023/10/15 04:01:49;;;;;;;13.43;13.03;;;7.40;99.90;;;;;;5088735;28;20453;-67
2023/10/15 04:04:18;;;;;;;12.30;12.00;;;7.40;99.90;;;;;;5081050;28;20466;-67
2023/10/15 04:06:53;;;;;;;12.97;12.60;;;7.40;99.90;;;;;;5073180;28;20464;-67
2023/10/15 04:09:25;;;;;;;13.20;12.80;;;7.40;99.90;;;;;;5085263;28;20534;-67
2023/10/15 04:11:52;;;;;;;12.90;12.53;;;7.40;99.90;;;;;;5071903;28;20484;-68
2023/10/15 04:14:26;;;;;;;12.90;12.50;;;7.30;99.90;;;;;;5074820;28;20459;-68
2023/10/15 04:16:53;;;;;;;12.40;12.10;;;7.40;99.90;;;;;;5075726;28;20462;-67
2023/10/15 04:19:25;;;;;;;12.87;12.47;;;7.40;99.90;;;;;;5076472;28;20466;-67
2023/10/15 04:21:59;;;;;;;14.57;14.07;;;7.50;99.90;;;;;;5078344;28;20454;-68
2023/10/15 04:24:36;;;;;;;15.00;14.50;;;7.40;99.90;;;;;;5072444;28;20549;-68
2023/10/15 04:27:06;;;;;;;14.20;13.80;;;7.50;99.90;;;;;;5069642;28;20465;-67
2023/10/15 04:29:34;;;;;;;14.07;13.67;;;7.60;99.90;;;;;;5078160;28;20504;-66
2023/10/15 04:32:04;;;;;;;14.30;13.90;;;7.60;99.90;;;;;;5075779;28;20868;-68
2023/10/15 04:34:36;;;;;;;14.47;13.97;;;7.50;99.90;;;;;;5077854;28;20469;-67
2023/10/15 04:37:11;;;;;;;14.83;14.33;;;7.50;99.90;;;;;;5073091;28;20482;-68
2023/10/15 04:39:51;;;;;;;13.90;13.50;;;7.50;99.90;;;;;;5077984;28;20525;-67
2023/10/15 04:42:21;;;;;;;13.60;13.20;;;7.40;99.90;;;;;;5073928;28;20474;-68
2023/10/15 04:44:49;;;;;;;14.03;13.63;;;7.40;99.90;;;;;;5076794;28;20940;-69
2023/10/15 04:47:20;;;;;;;14.80;14.30;;;7.30;99.90;;;;;;5079689;28;21337;-67
2023/10/15 04:49:48;;;;;;;14.90;14.40;;;7.40;99.90;;;;;;5074712;28;21327;-68
2023/10/15 04:52:18;;;;;;;14.33;13.83;;;7.50;99.90;;;;;;5078678;28;20834;-67
2023/10/15 04:54:45;;;;;;;14.63;14.13;;;7.50;99.90;;;;;;5074010;28;20511;-67
2023/10/15 04:57:13;;;;;;;13.93;13.53;;;7.50;99.90;;;;;;5077478;28;20459;-68
2023/10/15 04:59:42;;;;;;;14.40;13.90;;;7.40;99.90;;;;;;5071931;28;20472;-67
2023/10/15 05:02:09;;;;;;;13.17;12.77;;;7.50;99.90;;;;;;5075012;28;20458;-67
2023/10/15 05:04:36;;;;;;;12.90;12.50;;;7.50;99.90;;;;;;5074781;28;20463;-67
2023/10/15 05:07:06;;;;;;;13.50;13.10;;;7.40;99.90;;;;;;5074938;28;20611;-68
2023/10/15 05:09:39;;;;;;;13.60;13.20;;;7.40;99.90;;;;;;5076585;28;20497;-67
2023/10/15 05:12:08;;;;;;;13.37;12.97;;;7.50;99.90;;;;;;5077572;28;20458;-68
2023/10/15 05:14:35;;;;;;;13.23;12.83;;;7.50;99.90;;;;;;5079368;28;20818;-68
2023/10/15 05:17:04;;;;;;;12.30;12.00;;;7.50;99.90;;;;;;5074428;28;20980;-67
2023/10/15 05:19:31;;;;;;;12.80;12.40;;;7.40;99.90;;;;;;5079629;28;20466;-67
2023/10/15 05:21:58;;;;;;;12.83;12.43;;;7.40;99.90;;;;;;5079189;28;20458;-67
2023/10/15 05:24:30;;;;;;;12.83;12.43;;;7.40;99.90;;;;;;5076852;28;20477;-68
2023/10/15 05:26:57;;;;;;;13.10;12.70;;;7.50;99.90;;;;;;5082804;28;20937;-67
2023/10/15 05:29:24;;;;;;;13.50;13.10;;;7.50;99.90;;;;;;5078386;28;21095;-67
2023/10/15 05:31:53;;;;;;;13.30;12.90;;;7.50;99.90;;;;;;5081048;28;20463;-67
2023/10/15 05:34:21;;;;;;;13.07;12.67;;;7.40;99.90;;;;;;5073614;28;20476;-67
2023/10/15 05:36:48;;;;;;;12.20;11.90;;;7.50;99.90;;;;;;5077976;28;20478;-67
2023/10/15 05:39:16;;;;;;;12.40;12.10;;;7.40;99.90;;;;;;5084816;28;20472;-67
2023/10/15 05:41:45;;;;;;;12.97;12.57;;;7.40;99.90;;;;;;5078084;28;20523;-67
2023/10/15 05:44:12;;;;;;;12.67;12.27;;;7.40;99.90;;;;;;5068725;28;20463;-67
2023/10/15 05:46:38;;;;;;;12.30;12.00;;;7.40;99.90;;;;;;5078269;28;20570;-68
2023/10/15 05:49:06;;;;;;;12.20;11.90;;;7.30;99.90;;;;;;5082777;28;20565;-67
2023/10/15 05:51:33;;;;;;;13.40;13.00;;;7.30;99.90;;;;;;5070173;28;20777;-67
2023/10/15 05:54:00;;;;;;;14.43;13.93;;;7.20;99.90;;;;;;5068945;28;20549;-67
2023/10/15 05:56:28;;;;;;;15.03;14.53;;;7.20;99.90;;;;;;5073939;28;20833;-67
2023/10/15 05:58:57;;;;;;;14.77;14.27;;;7.10;99.90;;;;;;5075213;28;20473;-67
2023/10/15 06:01:25;;;;;;;13.43;13.03;;;7.00;99.90;;;;;;5070426;28;20468;-67
2023/10/15 06:03:52;;;;;;;14.50;14.00;;;6.90;99.90;;;;;;5075464;28;20816;-68
2023/10/15 06:06:19;;;;;;;14.10;13.60;;;6.90;99.90;;;;;;5079897;28;20463;-69
2023/10/15 06:08:46;;;;;;;15.43;14.83;;;6.90;99.90;;;;;;5083300;28;20464;-68
2023/10/15 06:11:13;;;;;;;15.00;14.50;;;6.90;99.90;;;;;;5082107;28;20466;-69
2023/10/15 06:13:40;;;;;;;14.70;14.20;;;6.90;99.90;;;;;;5071513;28;20548;-68
2023/10/15 06:16:09;;;;;;;14.57;14.07;;;6.90;99.90;;;;;;5079095;28;20466;-69
2023/10/15 06:18:37;;;;;;;14.83;14.33;;;6.90;99.90;;;;;;5075418;28;20478;-68
2023/10/15 06:21:04;;;;;;;14.70;14.20;;;6.80;99.90;;;;;;5071187;28;20838;-67
2023/10/15 06:23:32;;;;;;;15.77;15.17;;;6.70;99.90;;;;;;5069692;28;20470;-68
2023/10/15 06:25:59;;;;;;;15.80;15.20;;;6.60;99.90;;;;;;5082932;28;20458;-69
2023/10/15 06:28:27;;;;;;;15.80;15.20;;;6.60;99.90;;;;;;5075540;28;20455;-69
2023/10/15 06:30:55;;;;;;;16.17;15.57;;;6.50;99.90;;;;;;5075014;28;20486;-67
2023/10/15 06:33:25;;;;;;;16.30;15.70;;;6.40;99.90;;;;;;5073530;28;20461;-68
2023/10/15 06:35:53;;;;;;;16.30;15.70;;;6.40;99.90;;;;;;5079249;28;20475;-68
2023/10/15 06:38:19;;;;;;;15.53;14.93;;;6.40;99.90;;;;;;5070397;28;20458;-68
2023/10/15 06:40:46;;;;;;;15.83;15.23;;;6.40;99.90;;;;;;5075427;28;20490;-68
2023/10/15 06:43:15;;;;;;;15.73;15.13;;;6.40;99.90;;;;;;5075875;28;20556;-68
2023/10/15 06:45:42;;;;;;;15.87;15.27;;;6.40;99.90;;;;;;5071630;28;20507;-67
2023/10/15 06:48:10;;;;;;;16.10;15.50;;;6.50;99.90;;;;;;5087026;28;20450;-68
2023/10/15 06:50:41;;;;;;;15.83;15.23;;;6.50;99.90;;;;;;5079599;28;20496;-69
2023/10/15 06:53:08;;;;;;;15.77;15.17;;;6.50;99.90;;;;;;5073087;28;20557;-68
2023/10/15 06:55:35;;;;;;;14.47;13.97;;;6.60;99.90;;;;;;5079483;28;20454;-68
2023/10/15 06:58:02;;;;;;;14.27;13.77;;;6.60;99.90;;;;;;5075763;28;20458;-68
2023/10/15 07:00:31;;;;;;;14.83;14.33;;;6.80;99.90;;;;;;5069872;28;20516;-68
2023/10/15 07:02:59;;;;;;;14.57;14.07;;;6.90;99.90;;;;;;5072504;28;20557;-68
2023/10/15 07:05:26;;;;;;;14.50;14.00;;;7.00;99.90;;;;;;5078911;28;20557;-68
2023/10/15 07:07:56;;;;;;;13.67;13.27;;;7.10;99.90;;;;;;5068465;28;20562;-68
2023/10/15 07:10:24;;;;;;;12.80;12.40;;;7.20;99.90;;;;;;5069097;28;20489;-68
2023/10/15 07:12:51;;;;;;;12.23;11.93;;;7.30;99.90;;;;;;5068535;28;20491;-68
2023/10/15 07:15:20;;;;;;;12.27;11.97;;;7.50;99.90;;;;;;5085438;28;20517;-68
2023/10/15 07:17:50;;;;;;;12.50;12.20;;;7.60;99.90;;;;;;5069526;28;20497;-68
2023/10/15 07:20:18;;;;;;;12.20;11.90;;;7.80;99.90;;;;;;5072085;28;20454;-68
2023/10/15 07:22:48;;;;;;;12.50;12.20;;;8.00;99.90;;;;;;5075811;28;20509;-68
2023/10/15 07:25:18;;;;;;;12.20;11.90;;;8.00;99.90;;;;;;5076496;28;20849;-68
2023/10/15 07:27:46;;;;;;;12.17;11.87;;;8.00;99.90;;;;;;5067122;28;20453;-68
2023/10/15 07:30:16;;;;;;;11.50;11.20;;;8.10;99.90;;;;;;5069597;28;20989;-67
2023/10/15 07:32:45;;;;;;;11.90;11.60;;;8.00;99.90;;;;;;5071495;28;20472;-68
2023/10/15 07:35:13;;;;;;;11.47;11.17;;;8.00;99.90;;;;;;5081317;28;20949;-67
2023/10/15 07:37:42;;;;;;;12.80;12.40;;;8.00;99.90;;;;;;5067542;28;20502;-68
2023/10/15 07:40:16;;;;;;;13.00;12.60;;;7.90;99.90;;;;;;5077935;28;20532;-67
2023/10/15 07:42:48;;;;;;;13.10;12.70;;;8.00;99.90;;;;;;5070439;28;21000;-67
2023/10/15 07:45:18;;;;;;;12.70;12.30;;;8.10;99.90;;;;;;5080978;28;20903;-69
2023/10/15 07:47:45;;;;;;;12.80;12.40;;;8.10;99.90;;;;;;5071876;28;20460;-67
2023/10/15 07:50:16;;;;;;;12.93;12.53;;;8.20;99.90;;;;;;5071180;28;20902;-69
2023/10/15 07:52:44;;;;;;;12.60;12.20;;;8.20;99.90;;;;;;5076889;28;20461;-67
2023/10/15 07:55:11;;;;;;;13.80;13.30;;;8.20;99.90;;;;;;5073433;28;20460;-68
2023/10/15 07:57:38;;;;;;;12.63;12.23;;;8.30;99.90;;;;;;5086901;28;20477;-68
2023/10/15 08:00:09;;;;;;;13.07;12.67;;;8.30;99.90;;;;;;5075346;28;20551;-68
2023/10/15 08:02:36;;;;;;;12.83;12.43;;;8.30;99.90;;;;;;5080362;28;20555;-68
2023/10/15 08:05:03;;;;;;;12.47;12.10;;;8.50;99.90;;;;;;5088349;28;20498;-68
2023/10/15 08:07:30;;;;;;;12.63;12.23;;;8.40;99.90;;;;;;5070094;28;20476;-68
2023/10/15 08:09:57;;;;;;;12.70;12.30;;;8.40;99.90;;;;;;5069228;28;20491;-69
2023/10/15 08:12:27;;;;;;;12.53;12.17;;;8.50;99.90;;;;;;5082659;28;20453;-68
2023/10/15 08:14:57;;;;;;;12.93;12.53;;;8.50;99.90;;;;;;5083672;28;21044;-69
2023/10/15 08:17:29;;;;;;;13.07;12.67;;;8.50;99.90;;;;;;5073824;28;20462;-68
2023/10/15 08:19:56;;;;;;;13.23;12.83;;;8.40;99.90;;;;;;5073819;28;20469;-69
2023/10/15 08:22:25;;;;;;;13.30;12.90;;;8.30;99.90;;;;;;5065989;28;20462;-70
2023/10/15 08:24:52;;;;;;;13.20;12.80;;;8.30;99.90;;;;;;5079269;28;20454;-68
2023/10/15 08:27:19;;;;;;;13.53;13.13;;;8.20;99.90;;;;;;5066167;28;20538;-68
2023/10/15 08:29:47;;;;;;;13.17;12.77;;;8.20;99.90;;;;;;5067097;28;20477;-68
2023/10/15 08:32:16;;;;;;;13.60;13.20;;;8.20;99.90;;;;;;5068596;28;20476;-69
2023/10/15 08:34:44;;;;;;;13.47;13.07;;;8.40;99.90;;;;;;5077990;28;20876;-69
2023/10/15 08:37:12;;;;;;;13.37;12.97;;;8.50;99.90;;;;;;5076008;28;20484;-69
2023/10/15 08:39:39;;;;;;;12.80;12.40;;;8.50;99.90;;;;;;5070548;28;20474;-69
2023/10/15 08:42:11;;;;;;;13.20;12.80;;;8.60;99.90;;;;;;5069195;28;21023;-69
2023/10/15 08:44:40;;;;;;;13.33;12.93;;;8.70;99.90;;;;;;5067628;28;20458;-70
2023/10/15 08:47:10;;;;;;;13.03;12.63;;;8.70;99.90;;;;;;5066411;28;20479;-70
2023/10/15 08:49:50;;;;;;;13.47;13.07;;;8.60;99.90;;;;;;5067191;28;20565;-70
2023/10/15 08:52:19;;;;;;;12.97;12.57;;;8.70;99.90;;;;;;5065295;28;20464;-69
2023/10/15 08:54:48;;;;;;;11.93;11.63;;;8.70;99.90;;;;;;5069458;28;20794;-69
2023/10/15 08:57:16;;;;;;;12.43;12.13;;;8.80;99.90;;;;;;5073952;28;20511;-70
2023/10/15 08:59:44;;;;;;;12.67;12.27;;;8.80;99.90;;;;;;5070363;28;20470;-70
2023/10/15 09:02:11;;;;;;;12.33;12.03;;;8.70;99.90;;;;;;5068295;28;20560;-70
2023/10/15 09:04:38;;;;;;;12.70;12.30;;;8.80;99.90;;;;;;5078031;28;20466;-68
2023/10/15 09:07:05;;;;;;;12.67;12.27;;;8.70;99.90;;;;;;5070246;28;20450;-69
2023/10/15 09:09:34;;;;;;;12.80;12.40;;;8.80;99.90;;;;;;5071170;28;20464;-69
2023/10/15 09:12:01;;;;;;;11.80;11.50;;;8.80;99.90;;;;;;5068557;28;20549;-70
2023/10/15 09:14:43;;;;;;;12.00;11.70;;;8.80;99.90;;;;;;5074481;28;20466;-70
2023/10/15 09:17:12;;;;;;;11.63;11.33;;;8.70;99.90;;;;;;5078868;28;20461;-69
2023/10/15 09:19:39;;;;;;;11.37;11.07;;;8.80;99.90;;;;;;5078736;28;20972;-70
2023/10/15 09:22:08;;;;;;;11.10;10.80;;;8.80;99.90;;;;;;5075894;28;20462;-69
2023/10/15 09:24:37;;;;;;;11.27;10.97;;;8.90;99.90;;;;;;5079084;28;20461;-69
2023/10/15 09:27:05;;;;;;;11.33;11.03;;;9.20;99.90;;;;;;5076764;28;20466;-68
2023/10/15 09:29:32;;;;;;;11.97;11.67;;;9.30;99.90;;;;;;5067178;28;20454;-69
2023/10/15 09:32:02;;;;;;;11.90;11.60;;;9.40;99.90;;;;;;5083318;28;20718;-69
2023/10/15 09:34:31;;;;;;;11.90;11.60;;;9.20;99.90;;;;;;5077635;28;20465;-69
2023/10/15 09:36:58;;;;;;;11.97;11.67;;;9.10;99.90;;;;;;5084606;28;20996;-69
2023/10/15 09:39:27;;;;;;;11.43;11.13;;;9.30;99.90;;;;;;5075619;28;20456;-69
2023/10/15 09:41:56;;;;;;;12.50;12.10;;;9.40;99.90;;;;;;5070279;28;20819;-68
2023/10/15 09:44:25;;;;;;;12.60;12.20;;;9.20;99.90;;;;;;5078529;28;21037;-69
2023/10/15 09:46:52;;;;;;;12.10;11.80;;;9.10;99.90;;;;;;5072936;28;20873;-69
2023/10/15 09:49:22;;;;;;;12.60;12.20;;;9.10;99.90;;;;;;5076619;28;20465;-70
2023/10/15 09:51:49;;;;;;;12.60;12.20;;;9.10;99.90;;;;;;5080705;28;20556;-69
2023/10/15 09:54:19;;;;;;;12.57;12.17;;;9.10;99.90;;;;;;5078193;28;20449;-68
2023/10/15 09:56:47;;;;;;;12.73;12.33;;;9.10;99.90;;;;;;5074622;28;20467;-70
2023/10/15 09:59:15;;;;;;;13.00;12.60;;;9.10;99.90;;;;;;5088483;28;20936;-69
2023/10/15 10:01:47;;;;;;;12.00;11.70;;;9.30;99.90;;;;;;5077684;28;20457;-69
2023/10/15 10:04:40;;;;;;;11.97;11.67;;;9.40;99.90;;;;;;5075642;28;20476;-69
2023/10/15 10:07:26;;;;;;;12.50;12.10;;;9.40;99.90;;;;;;5075562;28;20561;-69
2023/10/15 10:10:34;;;;;;;12.50;12.10;;;9.30;99.90;;;;;;5079642;28;20457;-69
2023/10/15 10:13:27;;;;;;;12.87;12.47;;;9.60;99.90;;;;;;5070990;28;20476;-70
2023/10/15 10:15:59;;;;;;;12.90;12.50;;;9.80;99.90;;;;;;5079447;28;20953;-70
2023/10/15 10:18:27;;;;;;;12.70;12.30;;;10.10;99.90;;;;;;5068337;28;21008;-69
2023/10/15 10:20:56;;;;;;;12.50;12.10;;;10.50;99.90;;;;;;5069506;28;20506;-70
2023/10/15 10:23:23;;;;;;;12.90;12.50;;;10.90;99.90;;;;;;5070522;28;20489;-69
2023/10/15 10:25:50;;;;;;;13.30;12.90;;;11.00;99.90;;;;;;5085667;28;20501;-70
2023/10/15 10:28:18;;;;;;;13.30;12.90;;;10.80;99.90;;;;;;5075616;28;20458;-70
2023/10/15 10:30:53;;;;;;;13.30;12.90;;;10.80;99.90;;;;;;5075782;28;20495;-70
2023/10/15 10:33:50;;;;;;;13.70;13.20;;;10.60;99.90;;;;;;5075543;28;20449;-69
2023/10/15 10:36:18;;;;;;;13.20;12.80;;;10.60;99.90;;;;;;5080706;28;20481;-70
2023/10/15 10:38:53;;;;;;;12.87;12.47;;;10.60;99.90;;;;;;5076139;28;20460;-69
2023/10/15 10:41:20;;;;;;;12.77;12.37;;;10.60;99.90;;;;;;5079224;28;20481;-69
2023/10/15 10:43:49;;;;;;;12.10;11.80;;;10.60;99.90;;;;;;5078853;28;20950;-70
2023/10/15 10:46:23;;;;;;;13.03;12.63;;;10.40;99.90;;;;;;5081795;28;21030;-70
2023/10/15 10:49:05;;;;;;;12.70;12.30;;;10.10;99.90;;;;;;5069316;28;20462;-69
2023/10/15 10:51:33;;;;;;;12.67;12.27;;;9.60;99.90;;;;;;5073901;28;20494;-68
2023/10/15 10:54:26;;;;;;;12.83;12.43;;;9.70;99.90;;;;;;5074955;28;20698;-69
2023/10/15 10:57:07;;;;;;;12.40;12.00;;;9.80;99.90;;;;;;5080117;28;20560;-68
2023/10/15 10:59:36;;;;;;;12.57;12.17;;;10.00;99.90;;;;;;5081612;28;20498;-69
2023/10/15 11:02:06;;;;;;;11.60;11.30;;;10.40;99.90;;;;;;5080719;28;20531;-70
2023/10/15 11:04:36;;;;;;;11.13;10.83;;;10.50;99.90;;;;;;5073087;28;20551;-69
2023/10/15 11:07:03;;;;;;;11.40;11.10;;;11.20;99.90;;;;;;5072354;28;20557;-69
2023/10/15 11:09:30;;;;;;;11.20;10.90;;;11.70;99.90;;;;;;5067813;28;20474;-70
2023/10/15 11:11:58;;;;;;;11.00;10.70;;;11.60;99.90;;;;;;5077215;28;20883;-68
2023/10/15 11:14:27;;;;;;;11.87;11.57;;;11.50;99.90;;;;;;5080435;28;20545;-69
2023/10/15 11:16:56;;;;;;;11.33;11.03;;;11.60;99.90;;;;;;5072761;28;20486;-70
2023/10/15 11:19:24;;;;;;;11.53;11.23;;;12.40;99.90;;;;;;5072079;28;20466;-70
2023/10/15 11:21:53;;;;;;;12.10;11.80;;;12.80;99.90;;;;;;5073242;28;20463;-69
2023/10/15 11:24:23;;;;;;;12.30;12.00;;;12.40;99.90;;;;;;5082836;28;20458;-70
2023/10/15 11:26:51;;;;;;;11.77;11.47;;;11.90;99.90;;;;;;5072608;28;20461;-69
2023/10/15 11:29:19;;;;;;;11.50;11.20;;;11.90;99.90;;;;;;5066626;28;20519;-69
2023/10/15 11:31:48;;;;;;;12.80;12.40;;;12.40;99.90;;;;;;5081691;28;20585;-70
2023/10/15 11:34:19;;;;;;;13.50;13.10;;;12.60;99.90;;;;;;5073462;28;20477;-69
2023/10/15 11:36:48;;;;;;;13.60;13.20;;;12.80;99.90;;;;;;5076787;28;20474;-71
2023/10/15 11:39:19;;;;;;;13.47;13.07;;;12.80;99.90;;;;;;5070166;28;20455;-71
2023/10/15 11:41:52;;;;;;;13.13;12.73;;;12.60;99.90;;;;;;5073418;28;20937;-69
2023/10/15 11:44:25;;;;;;;13.60;13.20;;;12.40;99.90;;;;;;5081787;28;20454;-71
2023/10/15 11:46:54;;;;;;;13.40;13.00;;;12.40;99.90;;;;;;5069626;28;20475;-70
2023/10/15 11:49:23;;;;;;;13.93;13.53;;;12.50;99.90;;;;;;5068717;28;20465;-71
2023/10/15 11:51:51;;;;;;;13.70;13.30;;;12.00;99.90;;;;;;5064682;28;20576;-69
2023/10/15 11:54:23;;;;;;;13.50;13.10;;;12.00;99.90;;;;;;5067438;28;20816;-70
2023/10/15 11:56:50;;;;;;;13.20;12.80;;;11.80;99.90;;;;;;5071475;28;20476;-71
2023/10/15 11:59:18;;;;;;;13.80;13.40;;;11.70;99.90;;;;;;5073533;28;20477;-70
2023/10/15 12:01:50;;;;;;;12.77;12.37;;;11.60;99.90;;;;;;5075061;28;20915;-68
2023/10/15 12:04:17;;;;;;;13.37;12.97;;;11.60;99.90;;;;;;5078209;28;20577;-69
2023/10/15 12:06:45;;;;;;;13.10;12.70;;;11.30;99.90;;;;;;5064871;28;20847;-68
2023/10/15 12:09:16;;;;;;;12.90;12.50;;;11.20;99.90;;;;;;5065946;28;20980;-69
2023/10/15 12:11:46;;;;;;;13.30;12.90;;;11.10;99.90;;;;;;5072135;28;20482;-68
2023/10/15 12:14:13;;;;;;;13.17;12.77;;;11.10;99.90;;;;;;5083931;28;20442;-68
2023/10/15 12:16:40;;;;;;;12.53;12.23;;;11.10;99.90;;;;;;5072891;28;20450;-68
2023/10/15 12:19:08;;;;;;;12.80;12.40;;;11.00;99.90;;;;;;5081414;28;20454;-67
2023/10/15 12:21:36;;;;;;;12.30;12.00;;;10.90;99.90;;;;;;5069637;28;20471;-67
2023/10/15 12:24:03;;;;;;;12.43;12.13;;;11.20;99.90;;;;;;5077554;28;20979;-68
2023/10/15 12:26:29;;;;;;;13.20;12.80;;;11.40;99.90;;;;;;5066510;28;20463;-68
2023/10/15 12:28:57;;;;;;;11.57;11.27;;;11.40;99.90;;;;;;5075733;28;20477;-69
2023/10/15 12:31:26;;;;;;;12.70;12.30;;;11.70;99.90;;;;;;5075111;28;20486;-69
2023/10/15 12:33:53;;;;;;;13.47;13.07;;;12.10;99.90;;;;;;5071094;28;20554;-67
2023/10/15 12:36:21;;;;;;;13.50;13.10;;;12.00;99.90;;;;;;5070768;28;20955;-67
2023/10/15 12:38:49;;;;;;;12.90;12.50;;;12.40;99.90;;;;;;5072272;28;20459;-68
2023/10/15 12:41:21;;;;;;;13.40;13.00;;;12.60;99.90;;;;;;5073906;28;20442;-68
2023/10/15 12:43:49;;;;;;;13.17;12.77;;;12.30;99.90;;;;;;5078119;28;20957;-69
2023/10/15 12:46:18;;;;;;;13.07;12.67;;;12.00;99.90;;;;;;5075218;28;20566;-68
2023/10/15 12:48:45;;;;;;;12.73;12.40;;;12.40;99.90;;;;;;5069124;28;20469;-68